createdAt,value
2022-12-01T00:00:59.396Z,81.34
2022-12-01T00:03:26.362Z,79.82
2022-12-01T00:06:00.304Z,80.88
2022-12-01T00:08:27.236Z,81.54
2022-12-01T00:10:53.876Z,81.46
2022-12-01T00:13:20.392Z,81.32
2022-12-01T00:15:46.824Z,81.48
2022-12-01T00:18:13.263Z,80.80
2022-12-01T00:20:40.489Z,81.09
2022-12-01T00:23:06.915Z,80.64
2022-12-01T00:25:33.362Z,79.97
2022-12-01T00:27:59.839Z,80.75
2022-12-01T00:30:27.767Z,82.48
2022-12-01T00:32:54.260Z,82.76
2022-12-01T00:35:20.671Z,81.11
2022-12-01T00:37:47.216Z,82.85
2022-12-01T00:40:13.885Z,81.71
2022-12-01T00:42:40.871Z,82.58
2022-12-01T00:45:07.503Z,80.91
2022-12-01T00:47:33.983Z,82.14
2022-12-01T00:50:00.584Z,81.64
2022-12-01T00:52:27.554Z,81.74
2022-12-01T00:54:53.992Z,81.32
2022-12-01T00:57:20.452Z,80.58
2022-12-01T00:59:49.130Z,80.95
2022-12-01T01:02:15.964Z,81.78
2022-12-01T01:04:42.503Z,82.25
2022-12-01T01:07:08.942Z,82.24
2022-12-01T01:09:35.385Z,81.89
2022-12-01T01:12:01.976Z,83.70
2022-12-01T01:14:28.420Z,84.13
2022-12-01T01:16:56.328Z,84.01
2022-12-01T01:19:23.069Z,83.25
2022-12-01T01:21:49.557Z,82.24
2022-12-01T01:24:15.975Z,83.88
2022-12-01T01:26:42.676Z,84.06
2022-12-01T01:29:09.226Z,83.73
2022-12-01T01:31:35.759Z,84.00
2022-12-01T01:34:03.310Z,83.82
2022-12-01T01:36:29.786Z,83.69
2022-12-01T01:38:56.419Z,83.73
2022-12-01T01:41:23.837Z,84.32
2022-12-01T01:43:54.959Z,84.45
2022-12-01T01:46:26.093Z,84.58
2022-12-01T01:48:52.476Z,85.27
2022-12-01T01:51:40.544Z,85.42
2022-12-01T01:54:26.613Z,84.71
2022-12-01T01:56:54.107Z,85.26
2022-12-01T01:59:31.691Z,85.24
2022-12-01T02:02:08.607Z,85.33
2022-12-01T02:04:36.360Z,85.39
2022-12-01T02:07:02.885Z,84.90
2022-12-01T02:09:29.331Z,85.19
2022-12-01T02:12:14.617Z,85.56
2022-12-01T02:14:53.296Z,85.04
2022-12-01T02:17:41.347Z,85.95
2022-12-01T02:20:20.271Z,84.94
2022-12-01T02:22:52.198Z,86.62
2022-12-01T02:25:38.862Z,85.58
2022-12-01T02:28:29.426Z,85.86
2022-12-01T02:31:02.967Z,85.57
2022-12-01T02:33:35.671Z,85.55
2022-12-01T02:36:05.223Z,84.47
2022-12-01T02:38:38.554Z,85.07
2022-12-01T02:41:11.066Z,84.98
2022-12-01T02:43:46.043Z,84.50
2022-12-01T02:46:15.585Z,84.97
2022-12-01T02:48:43.196Z,85.50
2022-12-01T02:51:12.653Z,85.86
2022-12-01T02:53:39.228Z,85.69
2022-12-01T02:56:07.180Z,85.72
2022-12-01T02:58:33.671Z,85.13
2022-12-01T03:01:06.219Z,86.06
2022-12-01T03:03:40.958Z,85.94
2022-12-01T03:06:26.603Z,84.27
2022-12-01T03:09:09.377Z,85.66
2022-12-01T03:11:43.806Z,84.96
2022-12-01T03:14:16.321Z,84.08
2022-12-01T03:16:53.186Z,84.08
2022-12-01T03:19:25.739Z,84.13
2022-12-01T03:22:01.702Z,85.70
2022-12-01T03:24:31.667Z,85.25
2022-12-01T03:26:59.235Z,85.04
2022-12-01T03:29:28.115Z,84.42
2022-12-01T03:31:57.050Z,85.65
2022-12-01T03:34:34.208Z,85.09
2022-12-01T03:37:14.415Z,85.74
2022-12-01T03:39:42.655Z,86.16
2022-12-01T03:42:13.957Z,84.86
2022-12-01T03:44:48.095Z,85.06
2022-12-01T03:47:20.899Z,85.54
2022-12-01T03:49:50.363Z,84.63
2022-12-01T03:52:26.410Z,84.77
2022-12-01T03:55:01.124Z,85.32
2022-12-01T03:57:35.902Z,85.43
2022-12-01T04:00:02.643Z,84.82
2022-12-01T04:02:38.995Z,83.71
2022-12-01T04:05:06.266Z,83.44
2022-12-01T04:07:32.982Z,84.28
2022-12-01T04:09:59.594Z,84.25
2022-12-01T04:12:33.158Z,84.02
2022-12-01T04:15:04.067Z,84.35
2022-12-01T04:17:30.984Z,84.43
2022-12-01T04:19:57.499Z,83.17
2022-12-01T04:22:24.425Z,83.19
2022-12-01T04:24:51.400Z,82.85
2022-12-01T04:27:17.942Z,83.48
2022-12-01T04:29:44.359Z,85.50
2022-12-01T04:32:10.870Z,83.36
2022-12-01T04:34:37.484Z,84.52
2022-12-01T04:37:04.448Z,83.21
2022-12-01T04:39:30.883Z,84.46
2022-12-01T04:41:57.390Z,82.96
2022-12-01T04:44:23.832Z,84.12
2022-12-01T04:46:51.334Z,84.76
2022-12-01T04:49:17.883Z,82.82
2022-12-01T04:51:44.284Z,83.07
2022-12-01T04:54:10.675Z,83.43
2022-12-01T04:56:37.150Z,83.98
2022-12-01T04:59:03.687Z,82.68
2022-12-01T05:01:30.140Z,82.85
2022-12-01T05:03:56.691Z,82.94
2022-12-01T05:06:25.028Z,83.12
2022-12-01T05:08:56.532Z,82.31
2022-12-01T05:11:30.876Z,83.04
2022-12-01T05:13:57.569Z,82.92
2022-12-01T05:16:26.033Z,83.95
2022-12-01T05:19:13.818Z,84.44
2022-12-01T05:21:40.676Z,82.40
2022-12-01T05:24:07.773Z,84.24
2022-12-01T05:26:34.255Z,84.47
2022-12-01T05:29:00.686Z,84.58
2022-12-01T05:31:28.013Z,84.45
2022-12-01T05:33:54.515Z,84.89
2022-12-01T05:36:20.978Z,83.67
2022-12-01T05:38:47.463Z,84.40
2022-12-01T05:41:15.309Z,83.51
2022-12-01T05:43:41.772Z,83.37
2022-12-01T05:46:08.289Z,84.01
2022-12-01T05:48:34.918Z,83.21
2022-12-01T05:51:08.666Z,83.56
2022-12-01T05:53:35.083Z,83.09
2022-12-01T05:56:01.456Z,83.89
2022-12-01T05:58:28.260Z,83.40
2022-12-01T06:00:54.774Z,84.12
2022-12-01T06:03:21.227Z,84.58
2022-12-01T06:05:47.698Z,84.12
2022-12-01T06:08:14.182Z,84.21
2022-12-01T06:10:40.918Z,83.90
2022-12-01T06:13:07.378Z,85.32
2022-12-01T06:15:33.926Z,85.06
2022-12-01T06:18:00.373Z,84.25
2022-12-01T06:20:26.842Z,84.29
2022-12-01T06:22:53.436Z,84.37
2022-12-01T06:25:19.948Z,83.31
2022-12-01T06:27:46.914Z,84.47
2022-12-01T06:30:13.647Z,83.55
2022-12-01T06:32:40.062Z,84.61
2022-12-01T06:35:06.794Z,84.11
2022-12-01T06:37:33.263Z,84.99
2022-12-01T06:39:59.693Z,84.54
2022-12-01T06:42:28.829Z,83.63
2022-12-01T06:44:55.253Z,84.03
2022-12-01T06:47:21.685Z,84.26
2022-12-01T06:49:48.326Z,85.48
2022-12-01T06:52:14.935Z,85.41
2022-12-01T06:54:41.336Z,85.28
2022-12-01T06:57:08.074Z,85.17
2022-12-01T06:59:35.204Z,85.16
2022-12-01T07:02:03.054Z,85.03
2022-12-01T07:04:29.646Z,85.38
2022-12-01T07:06:58.990Z,84.68
2022-12-01T07:09:25.502Z,84.85
2022-12-01T07:11:51.958Z,85.24
2022-12-01T07:14:22.728Z,85.15
2022-12-01T07:16:49.329Z,84.81
2022-12-01T07:19:15.789Z,84.44
2022-12-01T07:21:42.204Z,85.04
2022-12-01T07:24:09.082Z,85.05
2022-12-01T07:26:35.557Z,84.59
2022-12-01T07:29:01.964Z,84.36
2022-12-01T07:31:28.481Z,84.73
2022-12-01T07:33:55.170Z,85.48
2022-12-01T07:36:21.596Z,84.84
2022-12-01T07:38:47.979Z,84.43
2022-12-01T07:41:19.130Z,84.67
2022-12-01T07:43:48.764Z,85.62
2022-12-01T07:46:23.320Z,85.36
2022-12-01T07:48:50.783Z,84.73
2022-12-01T07:51:17.628Z,85.50
2022-12-01T07:53:45.177Z,86.44
2022-12-01T07:56:12.012Z,86.58
2022-12-01T07:58:38.596Z,85.97
2022-12-01T08:01:09.446Z,84.43
2022-12-01T08:03:36.309Z,85.27
2022-12-01T08:06:03.412Z,86.18
2022-12-01T08:08:30.761Z,84.24
2022-12-01T08:10:59.945Z,84.60
2022-12-01T08:13:26.460Z,84.31
2022-12-01T08:15:52.934Z,85.48
2022-12-01T08:18:19.433Z,83.92
2022-12-01T08:20:45.891Z,84.35
2022-12-01T08:23:12.368Z,84.38
2022-12-01T08:25:38.849Z,82.89
2022-12-01T08:28:05.555Z,83.71
2022-12-01T08:30:32.277Z,83.59
2022-12-01T08:32:58.972Z,82.82
2022-12-01T08:35:25.751Z,82.73
2022-12-01T08:37:54.382Z,82.01
2022-12-01T08:40:21.751Z,82.41
2022-12-01T08:42:48.137Z,82.17
2022-12-01T08:45:14.654Z,82.29
2022-12-01T08:47:41.070Z,81.85
2022-12-01T08:50:07.735Z,81.59
2022-12-01T08:52:34.643Z,81.47
2022-12-01T08:55:03.458Z,81.28
2022-12-01T08:57:30.027Z,81.34
2022-12-01T08:59:56.765Z,80.51
2022-12-01T09:02:23.736Z,80.64
2022-12-01T09:04:50.740Z,80.67
2022-12-01T09:07:20.279Z,80.16
2022-12-01T09:09:51.472Z,79.04
2022-12-01T09:12:18.062Z,79.09
2022-12-01T09:14:49.592Z,78.57
2022-12-01T09:17:17.010Z,77.77
2022-12-01T09:19:44.120Z,76.70
2022-12-01T09:22:11.238Z,77.20
2022-12-01T09:24:37.990Z,76.41
2022-12-01T09:27:04.469Z,76.98
2022-12-01T09:29:31.432Z,76.43
2022-12-01T09:31:58.627Z,76.02
2022-12-01T09:34:25.838Z,75.59
2022-12-01T09:36:54.522Z,75.21
2022-12-01T09:39:21.602Z,75.39
2022-12-01T09:41:53.036Z,74.91
2022-12-01T09:44:48.940Z,75.05
2022-12-01T09:47:32.127Z,73.75
2022-12-01T09:49:58.615Z,75.01
2022-12-01T09:52:26.367Z,73.58
2022-12-01T09:54:55.158Z,73.55
2022-12-01T09:57:33.545Z,73.09
2022-12-01T10:00:01.055Z,73.16
2022-12-01T10:02:47.943Z,72.76
2022-12-01T10:05:16.250Z,73.08
2022-12-01T10:07:48.882Z,73.23
2022-12-01T10:10:20.891Z,71.35
2022-12-01T10:12:47.634Z,70.82
2022-12-01T10:15:23.470Z,71.61
2022-12-01T10:17:55.982Z,70.66
2022-12-01T10:20:28.471Z,71.33
2022-12-01T10:22:54.921Z,70.46
2022-12-01T10:25:25.158Z,71.05
2022-12-01T10:28:03.953Z,68.85
2022-12-01T10:30:30.539Z,70.07
2022-12-01T10:33:02.288Z,70.38
2022-12-01T10:35:36.155Z,69.87
2022-12-01T10:38:04.546Z,70.31
2022-12-01T10:40:35.367Z,69.41
2022-12-01T10:43:02.279Z,69.59
2022-12-01T10:45:33.198Z,68.39
2022-12-01T10:48:15.538Z,67.78
2022-12-01T10:50:43.408Z,67.55
2022-12-01T10:53:36.797Z,65.95
2022-12-01T10:56:10.306Z,65.67
2022-12-01T10:58:47.991Z,64.97
2022-12-01T11:01:25.466Z,65.31
2022-12-01T11:03:54.508Z,64.55
2022-12-01T11:06:22.887Z,64.27
2022-12-01T11:08:55.240Z,64.98
2022-12-01T11:11:36.295Z,65.87
2022-12-01T11:14:05.138Z,64.59
2022-12-01T11:16:42.500Z,63.29
2022-12-01T11:19:20.512Z,64.02
2022-12-01T11:21:59.389Z,63.27
2022-12-01T11:24:28.949Z,62.08
2022-12-01T11:26:56.534Z,62.04
2022-12-01T11:29:29.786Z,62.49
2022-12-01T11:31:57.393Z,62.77
2022-12-01T11:34:25.872Z,63.47
2022-12-01T11:37:03.265Z,62.45
2022-12-01T11:39:34.811Z,62.02
2022-12-01T11:42:03.003Z,62.37
2022-12-01T11:47:24.310Z,61.66
2022-12-01T11:49:53.363Z,61.84
2022-12-01T11:52:23.296Z,61.11
2022-12-01T11:55:22.457Z,61.10
2022-12-01T11:57:53.839Z,61.90
2022-12-01T12:00:21.774Z,61.60
2022-12-01T12:02:59.444Z,61.81
2022-12-01T12:05:45.692Z,61.59
2022-12-01T12:08:27.120Z,61.60
2022-12-01T12:11:00.929Z,62.03
2022-12-01T12:13:29.371Z,60.42
2022-12-01T12:16:14.261Z,60.50
2022-12-01T12:18:43.793Z,61.85
2022-12-01T12:21:24.501Z,62.08
2022-12-01T12:24:11.596Z,61.28
2022-12-01T12:26:58.314Z,61.12
2022-12-01T12:29:30.792Z,61.63
2022-12-01T12:32:12.652Z,62.16
2022-12-01T12:34:58.004Z,61.14
2022-12-01T12:37:39.877Z,61.97
2022-12-01T12:40:06.299Z,62.75
2022-12-01T12:42:54.988Z,63.07
2022-12-01T12:45:40.270Z,63.62
2022-12-01T12:48:25.427Z,63.78
2022-12-01T12:51:11.647Z,64.16
2022-12-01T12:53:59.746Z,63.99
2022-12-01T12:56:27.518Z,64.19
2022-12-01T12:58:58.277Z,65.17
2022-12-01T13:01:34.693Z,64.72
2022-12-01T13:04:06.483Z,64.75
2022-12-01T13:06:41.784Z,64.67
2022-12-01T13:09:11.611Z,64.57
2022-12-01T13:11:47.503Z,64.18
2022-12-01T13:14:26.215Z,64.09
2022-12-01T13:16:54.419Z,64.05
2022-12-01T13:19:23.299Z,63.87
2022-12-01T13:21:51.668Z,64.05
2022-12-01T13:24:23.294Z,62.87
2022-12-01T13:26:53.030Z,62.83
2022-12-01T13:29:21.643Z,62.42
2022-12-01T13:31:52.573Z,62.80
2022-12-01T13:34:19.185Z,63.77
2022-12-01T13:36:50.022Z,62.90
2022-12-01T13:39:22.823Z,63.38
2022-12-01T13:42:02.613Z,63.34
2022-12-01T13:44:44.306Z,63.38
2022-12-01T13:47:10.732Z,63.95
2022-12-01T13:49:45.157Z,64.00
2022-12-01T13:52:28.184Z,64.79
2022-12-01T13:55:22.791Z,64.88
2022-12-01T13:57:50.815Z,64.98
2022-12-01T14:00:26.949Z,65.30
2022-12-01T14:03:12.569Z,65.65
2022-12-01T14:05:43.805Z,65.99
2022-12-01T14:08:22.643Z,66.00
2022-12-01T14:11:00.694Z,66.17
2022-12-01T14:13:30.159Z,66.05
2022-12-01T14:16:00.885Z,66.63
2022-12-01T14:18:33.043Z,66.79
2022-12-01T14:21:04.686Z,66.58
2022-12-01T14:23:34.036Z,66.41
2022-12-01T14:26:12.720Z,66.69
2022-12-01T14:28:58.660Z,66.55
2022-12-01T14:31:46.645Z,67.14
2022-12-01T14:34:19.115Z,67.39
2022-12-01T14:36:49.751Z,67.50
2022-12-01T14:39:21.928Z,67.88
2022-12-01T14:41:51.049Z,67.91
2022-12-01T14:44:29.768Z,67.92
2022-12-01T14:47:02.505Z,68.38
2022-12-01T14:49:52.244Z,68.13
2022-12-01T14:52:31.812Z,67.98
2022-12-01T14:54:59.295Z,67.85
2022-12-01T14:57:30.404Z,68.26
2022-12-01T15:00:03.257Z,67.51
2022-12-01T15:02:29.767Z,67.98
2022-12-01T15:05:13.763Z,68.95
2022-12-01T15:07:44.625Z,68.76
2022-12-01T15:10:17.402Z,69.14
2022-12-01T15:12:43.917Z,68.31
2022-12-01T15:15:15.929Z,69.39
2022-12-01T15:17:44.485Z,69.44
2022-12-01T15:20:30.984Z,69.38
2022-12-01T15:22:58.579Z,68.31
2022-12-01T15:25:29.082Z,69.99
2022-12-01T15:28:25.479Z,69.55
2022-12-01T15:30:53.599Z,69.85
2022-12-01T15:33:26.900Z,69.66
2022-12-01T15:35:55.090Z,70.49
2022-12-01T15:38:23.726Z,69.80
2022-12-01T15:41:21.288Z,70.36
2022-12-01T15:43:41.238Z,69.86
2022-12-01T15:46:11.277Z,69.92
2022-12-01T15:48:37.720Z,70.31
2022-12-01T15:51:13.519Z,70.60
2022-12-01T15:53:44.956Z,70.66
2022-12-01T15:56:11.615Z,70.62
2022-12-01T15:58:43.930Z,70.29
2022-12-01T16:01:18.368Z,70.74
2022-12-01T16:03:49.931Z,71.09
2022-12-01T16:06:16.701Z,70.31
2022-12-01T16:08:51.891Z,71.08
2022-12-01T16:11:18.866Z,71.00
2022-12-01T16:13:58.149Z,71.11
2022-12-01T16:16:30.887Z,71.29
2022-12-01T16:19:03.814Z,71.87
2022-12-01T16:21:48.698Z,71.22
2022-12-01T16:24:20.831Z,72.11
2022-12-01T16:26:51.892Z,72.14
2022-12-01T16:29:28.616Z,72.17
2022-12-01T16:32:19.335Z,72.17
2022-12-01T16:34:46.739Z,72.80
2022-12-01T16:37:13.802Z,72.38
2022-12-01T16:39:40.246Z,73.00
2022-12-01T16:42:06.699Z,72.74
2022-12-01T16:44:33.178Z,73.48
2022-12-01T16:46:59.618Z,72.85
2022-12-01T16:49:26.152Z,73.53
2022-12-01T16:51:57.135Z,73.52
2022-12-01T16:54:25.228Z,73.92
2022-12-01T16:56:51.730Z,73.58
2022-12-01T16:59:18.284Z,73.89
2022-12-01T17:01:44.670Z,75.06
2022-12-01T17:04:11.247Z,74.96
2022-12-01T17:06:38.434Z,75.09
2022-12-01T17:09:05.074Z,75.10
2022-12-01T17:11:32.026Z,74.40
2022-12-01T17:13:58.467Z,75.22
2022-12-01T17:16:25.337Z,75.12
2022-12-01T17:18:52.242Z,75.32
2022-12-01T17:21:18.812Z,74.71
2022-12-01T17:23:45.299Z,75.13
2022-12-01T17:26:13.772Z,75.47
2022-12-01T17:28:41.193Z,75.84
2022-12-01T17:31:08.182Z,75.15
2022-12-01T17:33:35.157Z,74.73
2022-12-01T17:36:03.312Z,75.79
2022-12-01T17:38:30.497Z,75.66
2022-12-01T17:41:04.422Z,75.67
2022-12-01T17:43:30.823Z,76.13
2022-12-01T17:45:59.612Z,76.49
2022-12-01T17:48:26.157Z,76.20
2022-12-01T17:50:52.507Z,76.65
2022-12-01T17:53:19.083Z,76.84
2022-12-01T17:55:45.625Z,76.88
2022-12-01T17:58:12.066Z,76.46
2022-12-01T18:00:38.596Z,77.11
2022-12-01T18:03:05.113Z,75.50
2022-12-01T18:05:31.662Z,75.36
2022-12-01T18:07:58.395Z,75.41
2022-12-01T18:10:27.764Z,75.48
2022-12-01T18:12:54.223Z,76.16
2022-12-01T18:15:20.666Z,75.29
2022-12-01T18:17:52.881Z,75.95
2022-12-01T18:20:19.340Z,75.19
2022-12-01T18:22:45.944Z,74.54
2022-12-01T18:25:12.672Z,75.28
2022-12-01T18:27:39.884Z,75.06
2022-12-01T18:30:06.794Z,74.64
2022-12-01T18:32:33.501Z,75.02
2022-12-01T18:35:00.128Z,75.99
2022-12-01T18:37:26.587Z,75.26
2022-12-01T18:39:54.693Z,75.28
2022-12-01T18:42:21.213Z,75.08
2022-12-01T18:44:48.036Z,75.96
2022-12-01T18:47:14.674Z,75.64
2022-12-01T18:49:41.251Z,75.73
2022-12-01T18:52:07.784Z,74.43
2022-12-01T18:54:35.690Z,74.87
2022-12-01T18:57:04.978Z,75.59
2022-12-01T18:59:34.372Z,75.72
2022-12-01T19:02:00.926Z,75.46
2022-12-01T19:04:27.648Z,75.44
2022-12-01T19:06:55.887Z,75.06
2022-12-01T19:09:23.279Z,75.45
2022-12-01T19:11:52.960Z,74.96
2022-12-01T19:14:19.665Z,75.90
2022-12-01T19:16:47.264Z,75.47
2022-12-01T19:19:14.842Z,76.00
2022-12-01T19:21:41.583Z,76.15
2022-12-01T19:24:08.530Z,75.47
2022-12-01T19:26:35.214Z,74.81
2022-12-01T19:29:01.688Z,75.80
2022-12-01T19:31:28.171Z,76.48
2022-12-01T19:33:55.000Z,74.88
2022-12-01T19:36:25.603Z,75.14
2022-12-01T19:38:52.235Z,74.78
2022-12-01T19:41:25.066Z,76.34
2022-12-01T19:43:54.779Z,76.14
2022-12-01T19:46:27.069Z,75.47
2022-12-01T19:48:55.263Z,75.41
2022-12-01T19:51:26.150Z,75.57
2022-12-01T19:53:52.965Z,75.66
2022-12-01T19:56:19.443Z,75.68
2022-12-01T19:58:48.632Z,75.93
2022-12-01T20:01:16.700Z,75.55
2022-12-01T20:03:47.734Z,75.31
2022-12-01T20:06:16.004Z,75.33
2022-12-01T20:08:42.939Z,75.28
2022-12-01T20:11:09.560Z,75.10
2022-12-01T20:13:37.568Z,74.52
2022-12-01T20:16:05.462Z,74.91
2022-12-01T20:18:32.078Z,75.50
2022-12-01T20:21:02.444Z,76.16
2022-12-01T20:23:28.833Z,75.25
2022-12-01T20:25:57.961Z,75.38
2022-12-01T20:28:24.435Z,76.16
2022-12-01T20:30:50.988Z,75.37
2022-12-01T20:33:17.833Z,76.40
2022-12-01T20:35:44.224Z,75.96
2022-12-01T20:38:10.730Z,75.96
2022-12-01T20:40:37.131Z,75.55
2022-12-01T20:43:03.688Z,76.13
2022-12-01T20:45:30.264Z,75.81
2022-12-01T20:47:56.802Z,75.07
2022-12-01T20:50:23.271Z,75.34
2022-12-01T20:52:49.710Z,75.88
2022-12-01T20:55:16.230Z,75.57
2022-12-01T20:57:42.687Z,75.95
2022-12-01T21:00:13.046Z,76.42
2022-12-01T21:02:42.006Z,75.25
2022-12-01T21:05:08.632Z,75.89
2022-12-01T21:07:37.945Z,75.81
2022-12-01T21:10:05.512Z,76.04
2022-12-01T21:12:51.234Z,75.71
2022-12-01T21:15:24.768Z,76.30
2022-12-01T21:17:54.291Z,76.50
2022-12-01T21:20:25.141Z,77.02
2022-12-01T21:22:53.594Z,77.10
2022-12-01T21:25:24.342Z,77.23
2022-12-01T21:27:51.276Z,77.02
2022-12-01T21:30:22.275Z,76.26
2022-12-01T21:32:49.242Z,76.65
2022-12-01T21:35:17.496Z,77.25
2022-12-01T21:37:44.608Z,77.67
2022-12-01T21:40:24.706Z,76.31
2022-12-01T21:42:51.561Z,76.26
2022-12-01T21:45:19.161Z,77.20
2022-12-01T21:47:45.952Z,77.47
2022-12-01T21:50:17.091Z,77.67
2022-12-01T21:52:44.582Z,77.37
2022-12-01T21:55:17.069Z,77.53
2022-12-01T21:57:47.810Z,77.66
2022-12-01T22:00:20.407Z,77.70
2022-12-01T22:02:49.606Z,78.00
2022-12-01T22:05:42.876Z,76.51
2022-12-01T22:08:12.394Z,77.28
2022-12-01T22:10:55.992Z,76.95
2022-12-01T22:13:24.641Z,77.25
2022-12-01T22:15:52.492Z,77.43
2022-12-01T22:18:37.855Z,76.24
2022-12-01T22:21:19.610Z,77.19
2022-12-01T22:23:46.459Z,77.51
2022-12-01T22:26:19.485Z,77.46
2022-12-01T22:28:48.774Z,77.45
2022-12-01T22:31:18.475Z,77.45
2022-12-01T22:33:45.021Z,76.82
2022-12-01T22:36:19.686Z,78.01
2022-12-01T22:38:48.802Z,77.63
2022-12-01T22:41:16.530Z,78.23
2022-12-01T22:43:43.067Z,78.19
2022-12-01T22:46:16.780Z,77.70
2022-12-01T22:48:45.034Z,78.17
2022-12-01T22:51:14.339Z,77.33
2022-12-01T22:53:44.280Z,77.67
2022-12-01T22:56:26.037Z,77.43
2022-12-01T22:58:52.756Z,75.90
2022-12-01T23:01:30.055Z,76.11
2022-12-01T23:04:14.711Z,76.38
2022-12-01T23:06:53.678Z,76.21
2022-12-01T23:09:21.407Z,76.77
2022-12-01T23:11:50.511Z,76.47
2022-12-01T23:14:19.816Z,76.49
2022-12-01T23:16:46.240Z,76.25
2022-12-01T23:19:12.686Z,75.96
2022-12-01T23:21:39.153Z,75.47
2022-12-01T23:24:06.269Z,75.32
2022-12-01T23:26:32.947Z,75.75
2022-12-01T23:29:00.147Z,75.89
2022-12-01T23:31:27.629Z,75.71
2022-12-01T23:33:54.185Z,75.26
2022-12-01T23:36:26.047Z,76.36
2022-12-01T23:38:57.227Z,75.90
2022-12-01T23:41:32.855Z,75.68
2022-12-01T23:44:01.156Z,75.33
2022-12-01T23:46:29.875Z,76.07
2022-12-01T23:48:58.964Z,76.42
2022-12-01T23:51:27.950Z,75.95
2022-12-01T23:53:55.551Z,76.38
2022-12-01T23:56:23.527Z,77.10
2022-12-01T23:58:50.866Z,76.90
